Time,TemperatureF,DewpointF,PressureIn,WindDirection,WindDirectionDegrees,WindSpeedMPH,WindSpeedGustMPH,Humidity,HourlyPrecipIn,Conditions,Clouds,dailyrainin,SoftwareType,DateUTC
2013-03-05 00:12:00,31.0,22.0,-100.00,WNW,290,6.0,12.0,68,-99.99,,,-99.99,,2013-03-05 05:12:00,
2013-03-05 00:22:00,31.0,22.0,-100.00,WNW,290,6.0,12.0,68,-99.99,,,-99.99,,2013-03-05 05:22:00,
2013-03-05 00:32:00,31.0,22.0,-100.00,WNW,300,6.0,14.0,68,-99.99,,,-99.99,,2013-03-05 05:32:00,
2013-03-05 00:42:00,31.0,22.0,-100.00,WNW,285,7.0,14.0,68,-99.99,,,-99.99,,2013-03-05 05:42:00,
2013-03-05 00:52:00,31.0,22.0,-100.00,WNW,295,3.0,9.0,68,-99.99,,,-99.99,,2013-03-05 05:52:00,
2013-03-05 01:02:00,31.0,21.0,-100.00,West,275,3.0,13.0,67,-99.99,,,-99.99,,2013-03-05 06:02:00,
2013-03-05 01:11:00,31.0,21.0,-100.00,NW,305,7.0,14.0,67,-99.99,,,-99.99,,2013-03-05 06:11:00,
2013-03-05 01:22:00,31.0,22.0,-100.00,WNW,295,5.0,14.0,67,-99.99,,,-99.99,,2013-03-05 06:22:00,
2013-03-05 01:32:00,31.0,22.0,-100.00,West,275,5.0,10.0,67,-99.99,,,-99.99,,2013-03-05 06:32:00,
2013-03-05 01:42:00,31.0,22.0,-100.00,West,275,2.0,14.0,67,-99.99,,,-99.99,,2013-03-05 06:42:00,
2013-03-05 01:52:00,31.0,22.0,-100.00,NNW,335,5.0,12.0,68,-99.99,,,-99.99,,2013-03-05 06:52:00,
2013-03-05 02:01:00,31.0,21.0,-100.00,NW,305,5.0,12.0,67,-99.99,,,-99.99,,2013-03-05 07:01:00,
2013-03-05 02:11:00,31.0,21.0,-100.00,WNW,295,5.0,14.0,68,-99.99,,,-99.99,,2013-03-05 07:11:00,
2013-03-05 02:22:00,31.0,21.0,-100.00,NW,305,6.0,14.0,68,-99.99,,,-99.99,,2013-03-05 07:22:00,
2013-03-05 02:30:00,29.0,21.0,-100.00,West,275,3.0,8.0,70,-99.99,,,-99.99,,2013-03-05 07:30:00,
2013-03-05 02:32:00,30.0,21.0,-100.00,West,270,5.0,9.0,69,-99.99,,,-99.99,,2013-03-05 07:32:00,
2013-03-05 02:42:00,30.0,21.0,-100.00,West,280,5.0,14.0,69,-99.99,,,-99.99,,2013-03-05 07:42:00,
2013-03-05 02:51:00,30.0,21.0,-100.00,WNW,285,3.0,14.0,69,-99.99,,,-99.99,,2013-03-05 07:51:00,
2013-03-05 03:02:00,30.0,21.0,-100.00,WSW,250,2.0,9.0,69,-99.99,,,-99.99,,2013-03-05 08:02:00,
2013-03-05 03:11:00,29.0,21.0,-100.00,West,275,3.0,8.0,70,-99.99,,,-99.99,,2013-03-05 08:11:00,
2013-03-05 03:21:00,29.0,21.0,-100.00,West,275,3.0,8.0,70,-99.99,,,-99.99,,2013-03-05 08:21:00,
2013-03-05 03:42:00,29.0,21.0,-100.00,NW,305,5.0,10.0,71,-99.99,,,-99.99,,2013-03-05 08:42:00,
2013-03-05 03:52:00,29.0,21.0,-100.00,WNW,295,3.0,9.0,71,-99.99,,,-99.99,,2013-03-05 08:52:00,
2013-03-05 04:02:00,29.0,21.0,-100.00,NW,320,3.0,10.0,70,-99.99,,,-99.99,,2013-03-05 09:02:00,
2013-03-05 04:10:00,30.0,21.0,-100.00,WNW,295,5.0,9.0,70,-99.99,,,-99.99,,2013-03-05 09:10:00,
2013-03-05 04:11:00,30.0,21.0,-100.00,West,280,5.0,13.0,70,-99.99,,,-99.99,,2013-03-05 09:11:00,
2013-03-05 04:21:00,30.0,21.0,-100.00,West,270,5.0,12.0,70,-99.99,,,-99.99,,2013-03-05 09:21:00,
2013-03-05 04:32:00,30.0,21.0,-100.00,West,280,3.0,13.0,70,-99.99,,,-99.99,,2013-03-05 09:32:00,
2013-03-05 04:43:00,30.0,21.0,-100.00,West,270,6.0,12.0,69,-99.99,,,-99.99,,2013-03-05 09:43:00,
2013-03-05 04:52:00,30.0,21.0,-100.00,WNW,295,5.0,9.0,70,-99.99,,,-99.99,,2013-03-05 09:52:00,
2013-03-05 05:02:00,30.0,21.0,-100.00,WNW,295,5.0,9.0,70,-99.99,,,-99.99,,2013-03-05 10:02:00,
2013-03-05 05:42:00,31.0,21.0,-100.00,West,275,5.0,9.0,68,-99.99,,,-99.99,,2013-03-05 10:42:00,
2013-03-05 05:52:00,31.0,21.0,-100.00,West,275,5.0,9.0,68,-99.99,,,-99.99,,2013-03-05 10:52:00,
2013-03-05 06:02:00,31.0,22.0,-100.00,West,270,5.0,13.0,69,-99.99,,,-99.99,,2013-03-05 11:02:00,
2013-03-05 06:11:00,31.0,22.0,-100.00,NNW,345,3.0,9.0,69,-99.99,,,-99.99,,2013-03-05 11:11:00,
2013-03-05 06:22:00,31.0,22.0,-100.00,West,265,2.0,8.0,69,-99.99,,,-99.99,,2013-03-05 11:22:00,
2013-03-05 06:32:00,31.0,22.0,-100.00,NW,315,2.0,9.0,69,-99.99,,,-99.99,,2013-03-05 11:32:00,
2013-03-05 06:42:00,31.0,22.0,-100.00,SW,225,2.0,8.0,69,-99.99,,,-99.99,,2013-03-05 11:42:00,
2013-03-05 06:52:00,31.0,22.0,-100.00,WSW,240,2.0,10.0,69,-99.99,,,-99.99,,2013-03-05 11:52:00,
2013-03-05 07:02:00,31.0,22.0,-100.00,NW,305,2.0,9.0,69,-99.99,,,-99.99,,2013-03-05 12:02:00,
2013-03-05 07:32:00,31.0,22.0,-100.00,NNW,330,5.0,12.0,69,-99.99,,,-99.99,,2013-03-05 12:32:00,
2013-03-05 07:42:00,31.0,22.0,-100.00,SW,220,2.0,14.0,69,-99.99,,,-99.99,,2013-03-05 12:42:00,
2013-03-05 07:52:00,32.0,22.0,-100.00,NNE,20,2.0,9.0,68,-99.99,,,-99.99,,2013-03-05 12:52:00,
2013-03-05 08:02:00,32.0,22.0,-100.00,WSW,245,2.0,8.0,67,-99.99,,,-99.99,,2013-03-05 13:02:00,
2013-03-05 08:12:00,33.0,23.0,-100.00,WSW,250,3.0,7.0,66,-99.99,,,-99.99,,2013-03-05 13:12:00,
2013-03-05 08:22:00,33.0,22.0,-100.00,WNW,300,3.0,9.0,65,-99.99,,,-99.99,,2013-03-05 13:22:00,
2013-03-05 08:32:00,34.0,23.0,-100.00,WNW,290,3.0,7.0,64,-99.99,,,-99.99,,2013-03-05 13:32:00,
2013-03-05 08:42:00,34.0,23.0,-100.00,WNW,290,3.0,7.0,64,-99.99,,,-99.99,,2013-03-05 13:42:00,
2013-03-05 08:52:00,35.0,23.0,-100.00,North,350,5.0,10.0,63,-99.99,,,-99.99,,2013-03-05 13:52:00,
2013-03-05 09:02:00,35.0,23.0,-100.00,WNW,290,2.0,10.0,63,-99.99,,,-99.99,,2013-03-05 14:02:00,
2013-03-05 09:11:00,36.0,24.0,-100.00,NNW,345,5.0,10.0,62,-99.99,,,-99.99,,2013-03-05 14:11:00,
2013-03-05 09:22:00,35.0,24.0,-100.00,West,260,2.0,9.0,62,-99.99,,,-99.99,,2013-03-05 14:22:00,
2013-03-05 09:32:00,36.0,24.0,-100.00,NNW,335,3.0,9.0,62,-99.99,,,-99.99,,2013-03-05 14:32:00,
2013-03-05 09:42:00,36.0,24.0,-100.00,NE,40,2.0,10.0,60,-99.99,,,-99.99,,2013-03-05 14:42:00,
2013-03-05 09:52:00,37.0,25.0,-100.00,NNE,15,5.0,12.0,61,-99.99,,,-99.99,,2013-03-05 14:52:00,
2013-03-05 10:02:00,38.0,25.0,-100.00,West,260,2.0,8.0,60,-99.99,,,-99.99,,2013-03-05 15:02:00,
2013-03-05 10:10:00,39.0,26.0,-100.00,North,0,3.0,8.0,58,-99.99,,,-99.99,,2013-03-05 15:10:00,
2013-03-05 10:11:00,38.0,25.0,-100.00,ENE,60,2.0,9.0,59,-99.99,,,-99.99,,2013-03-05 15:11:00,
2013-03-05 10:22:00,38.0,25.0,-100.00,West,280,3.0,12.0,60,-99.99,,,-99.99,,2013-03-05 15:22:00,
2013-03-05 10:32:00,38.0,26.0,-100.00,North,5,3.0,15.0,61,-99.99,,,-99.99,,2013-03-05 15:32:00,
2013-03-05 10:42:00,39.0,26.0,-100.00,North,10,2.0,7.0,59,-99.99,,,-99.99,,2013-03-05 15:42:00,
2013-03-05 10:52:00,39.0,26.0,-100.00,North,0,3.0,8.0,58,-99.99,,,-99.99,,2013-03-05 15:52:00,
2013-03-05 11:02:00,39.0,26.0,-100.00,North,0,3.0,8.0,58,-99.99,,,-99.99,,2013-03-05 16:02:00,
2013-03-05 14:22:00,43.0,34.0,-100.00,ENE,75,5.0,9.0,69,-99.99,,,-99.99,,2013-03-05 19:22:00,
2013-03-05 14:32:00,42.0,33.0,-100.00,ENE,60,8.0,13.0,71,-99.99,,,-99.99,,2013-03-05 19:32:00,
2013-03-05 15:32:00,42.0,34.0,-100.00,NE,45,5.0,8.0,74,-99.99,,,-99.99,,2013-03-05 20:32:00,
2013-03-05 19:02:00,34.0,32.0,-100.00,North,350,0.0,1.0,91,-99.99,,,-99.99,,2013-03-06 00:02:00,